createdAt,value
2022-08-27T00:02:10.725Z,100.00
2022-08-27T00:04:41.397Z,100.00
2022-08-27T00:07:10.853Z,100.00
2022-08-27T00:09:40.152Z,100.00
2022-08-27T00:12:09.637Z,100.00
2022-08-27T00:14:39.673Z,100.00
2022-08-27T00:17:08.337Z,100.00
2022-08-27T00:19:37.838Z,100.00
2022-08-27T00:22:08.348Z,100.00
2022-08-27T00:24:42.042Z,100.00
2022-08-27T00:27:18.441Z,100.00
2022-08-27T00:29:48.238Z,100.00
2022-08-27T00:32:17.198Z,100.00
2022-08-27T00:34:45.581Z,100.00
2022-08-27T00:37:14.329Z,100.00
2022-08-27T00:39:42.450Z,100.00
2022-08-27T00:42:11.833Z,100.00
2022-08-27T00:44:40.858Z,100.00
2022-08-27T00:47:17.453Z,100.00
2022-08-27T00:49:56.397Z,100.00
2022-08-27T00:52:57.651Z,100.00
2022-08-27T00:55:35.926Z,100.00
2022-08-27T00:58:17.769Z,100.00
2022-08-27T01:00:46.751Z,100.00
2022-08-27T01:03:16.012Z,100.00
2022-08-27T01:05:45.921Z,100.00
2022-08-27T01:08:21.527Z,100.00
2022-08-27T01:10:51.518Z,100.00
2022-08-27T01:13:59.276Z,100.00
2022-08-27T01:16:21.730Z,100.00
2022-08-27T01:18:51.876Z,100.00
2022-08-27T01:21:19.852Z,100.00
2022-08-27T01:24:21.865Z,100.00
2022-08-27T01:26:50.477Z,100.00
2022-08-27T01:29:19.188Z,100.00
2022-08-27T01:31:48.355Z,100.00
2022-08-27T01:34:16.688Z,100.00
2022-08-27T01:36:44.904Z,100.00
2022-08-27T01:39:13.039Z,100.00
2022-08-27T01:41:41.378Z,100.00
2022-08-27T01:44:09.538Z,100.00
2022-08-27T01:46:37.934Z,100.00
2022-08-27T01:49:06.621Z,100.00
2022-08-27T01:51:35.246Z,100.00
2022-08-27T01:54:03.710Z,100.00
2022-08-27T01:56:31.696Z,100.00
2022-08-27T01:59:00.176Z,100.00
2022-08-27T02:01:28.792Z,100.00
2022-08-27T02:03:57.093Z,100.00
2022-08-27T02:06:25.353Z,100.00
2022-08-27T02:08:53.529Z,100.00
2022-08-27T02:11:21.916Z,100.00
2022-08-27T02:13:50.092Z,100.00
2022-08-27T02:16:18.758Z,100.00
2022-08-27T02:18:47.453Z,100.00
2022-08-27T02:21:15.801Z,100.00
2022-08-27T02:23:45.811Z,100.00
2022-08-27T02:26:14.200Z,100.00
2022-08-27T02:28:42.503Z,100.00
2022-08-27T02:31:10.886Z,100.00
2022-08-27T02:33:38.992Z,100.00
2022-08-27T02:36:07.595Z,100.00
2022-08-27T02:38:35.985Z,100.00
2022-08-27T02:41:04.124Z,100.00
2022-08-27T02:43:32.355Z,100.00
2022-08-27T02:46:03.828Z,100.00
2022-08-27T02:48:32.056Z,100.00
2022-08-27T02:51:00.168Z,100.00
2022-08-27T02:53:28.754Z,100.00
2022-08-27T02:55:56.879Z,100.00
2022-08-27T02:58:25.153Z,100.00
2022-08-27T03:00:53.706Z,100.00
2022-08-27T03:03:21.815Z,100.00
2022-08-27T03:05:50.122Z,100.00
2022-08-27T03:08:18.292Z,100.00
2022-08-27T03:10:46.431Z,100.00
2022-08-27T03:13:14.758Z,100.00
2022-08-27T03:15:43.039Z,100.00
2022-08-27T03:18:20.236Z,100.00
2022-08-27T03:20:56.015Z,100.00
2022-08-27T03:23:28.252Z,100.00
2022-08-27T03:26:00.617Z,100.00
2022-08-27T03:28:34.209Z,100.00
2022-08-27T03:31:08.022Z,100.00
2022-08-27T03:33:40.600Z,100.00
2022-08-27T03:36:09.704Z,100.00
2022-08-27T03:38:38.642Z,100.00
2022-08-27T03:41:06.933Z,100.00
2022-08-27T03:43:36.067Z,100.00
2022-08-27T03:46:04.213Z,100.00
2022-08-27T03:48:32.949Z,100.00
2022-08-27T03:51:11.640Z,100.00
2022-08-27T03:53:42.098Z,100.00
2022-08-27T03:56:10.966Z,100.00
2022-08-27T03:58:40.219Z,100.00
2022-08-27T04:01:09.318Z,100.00
2022-08-27T04:03:38.324Z,100.00
2022-08-27T04:06:07.412Z,100.00
2022-08-27T04:08:36.558Z,100.00
2022-08-27T04:11:08.360Z,100.00
2022-08-27T04:13:37.672Z,100.00
2022-08-27T04:16:07.211Z,100.00
2022-08-27T04:18:35.651Z,100.00
2022-08-27T04:21:13.285Z,100.00
2022-08-27T04:23:42.725Z,100.00
2022-08-27T04:26:15.899Z,100.00
2022-08-27T04:28:48.661Z,100.00
2022-08-27T04:31:17.409Z,100.00
2022-08-27T04:33:51.243Z,100.00
2022-08-27T04:36:20.864Z,100.00
2022-08-27T04:38:50.115Z,100.00
2022-08-27T04:41:26.737Z,100.00
2022-08-27T04:43:57.960Z,100.00
2022-08-27T04:46:31.354Z,100.00
2022-08-27T04:49:02.836Z,100.00
2022-08-27T04:51:35.884Z,100.00
2022-08-27T04:54:06.702Z,100.00
2022-08-27T04:56:36.956Z,100.00
2022-08-27T04:59:09.324Z,100.00
2022-08-27T05:01:40.613Z,100.00
2022-08-27T05:04:11.182Z,100.00
2022-08-27T05:06:39.935Z,100.00
2022-08-27T05:09:08.834Z,100.00
2022-08-27T05:11:37.610Z,100.00
2022-08-27T05:14:10.935Z,100.00
2022-08-27T05:16:40.810Z,100.00
2022-08-27T05:19:14.973Z,100.00
2022-08-27T05:21:50.804Z,100.00
2022-08-27T05:24:19.860Z,100.00
2022-08-27T05:26:48.434Z,100.00
2022-08-27T05:29:17.094Z,100.00
2022-08-27T05:31:48.217Z,100.00
2022-08-27T05:34:25.546Z,100.00
2022-08-27T05:36:55.193Z,100.00
2022-08-27T05:39:23.329Z,100.00
2022-08-27T05:41:53.066Z,100.00
2022-08-27T05:47:10.264Z,100.00
2022-08-27T05:49:38.814Z,100.00
2022-08-27T05:52:11.964Z,100.00
2022-08-27T05:54:40.786Z,100.00
2022-08-27T05:57:09.508Z,100.00
2022-08-27T05:59:56.601Z,100.00
2022-08-27T06:02:24.951Z,100.00
2022-08-27T06:04:54.018Z,100.00
2022-08-27T06:07:22.320Z,100.00
2022-08-27T06:09:50.433Z,100.00
2022-08-27T06:12:18.596Z,100.00
2022-08-27T06:14:46.955Z,100.00
2022-08-27T06:17:15.009Z,100.00
2022-08-27T06:19:43.954Z,100.00
2022-08-27T06:22:12.553Z,100.00
2022-08-27T06:24:43.536Z,100.00
2022-08-27T06:27:17.248Z,100.00
2022-08-27T06:29:46.351Z,100.00
2022-08-27T06:32:15.342Z,100.00
2022-08-27T06:34:43.748Z,100.00
2022-08-27T06:37:11.975Z,100.00
2022-08-27T06:39:40.683Z,100.00
2022-08-27T06:42:13.272Z,100.00
2022-08-27T06:44:42.344Z,100.00
2022-08-27T06:47:11.325Z,97.57
2022-08-27T06:49:41.662Z,96.99
2022-08-27T06:52:15.898Z,92.50
2022-08-27T06:54:46.091Z,97.06
2022-08-27T06:57:14.388Z,96.22
2022-08-27T06:59:43.404Z,90.58
2022-08-27T07:02:11.826Z,88.03
2022-08-27T07:04:40.479Z,87.92
2022-08-27T07:07:13.150Z,85.04
2022-08-27T07:09:41.571Z,82.84
2022-08-27T07:12:09.756Z,79.43
2022-08-27T07:14:38.478Z,76.02
2022-08-27T07:17:11.341Z,77.07
2022-08-27T07:19:45.813Z,76.38
2022-08-27T07:22:14.123Z,78.34
2022-08-27T07:24:44.017Z,76.05
2022-08-27T07:27:12.585Z,74.47
2022-08-27T07:29:40.846Z,74.54
2022-08-27T07:32:09.358Z,73.64
2022-08-27T07:34:37.689Z,71.79
2022-08-27T07:37:05.881Z,72.21
2022-08-27T07:39:34.290Z,69.22
2022-08-27T07:42:21.191Z,71.07
2022-08-27T07:44:50.224Z,68.04
2022-08-27T07:47:18.810Z,68.45
2022-08-27T07:49:47.025Z,66.87
2022-08-27T07:52:17.775Z,66.72
2022-08-27T07:54:45.913Z,65.60
2022-08-27T07:57:14.100Z,62.58
2022-08-27T07:59:42.336Z,63.32
2022-08-27T08:02:10.512Z,63.61
2022-08-27T08:04:38.840Z,63.10
2022-08-27T08:07:06.930Z,60.60
2022-08-27T08:09:35.093Z,60.03
2022-08-27T08:12:05.349Z,60.74
2022-08-27T08:14:33.661Z,60.77
2022-08-27T08:17:10.066Z,59.67
2022-08-27T08:19:40.653Z,59.37
2022-08-27T08:22:09.294Z,57.97
2022-08-27T08:24:37.408Z,57.00
2022-08-27T08:27:07.345Z,56.99
2022-08-27T08:29:36.637Z,55.77
2022-08-27T08:32:07.656Z,54.76
2022-08-27T08:34:36.988Z,55.39
2022-08-27T08:37:07.377Z,54.07
2022-08-27T08:39:38.570Z,52.52
2022-08-27T08:42:18.464Z,53.87
2022-08-27T08:44:53.926Z,52.13
2022-08-27T08:47:49.032Z,51.60
2022-08-27T08:51:02.237Z,51.68
2022-08-27T08:53:55.088Z,52.31
2022-08-27T08:57:00.081Z,51.23
2022-08-27T08:59:51.035Z,49.62
2022-08-27T09:02:19.582Z,50.85
2022-08-27T09:04:47.858Z,50.68
2022-08-27T09:07:38.986Z,51.07
2022-08-27T09:10:20.843Z,51.66
2022-08-27T09:12:49.246Z,51.77
2022-08-27T09:15:23.684Z,53.12
2022-08-27T09:17:52.124Z,52.73
2022-08-27T09:20:25.916Z,53.14
2022-08-27T09:23:22.162Z,51.85
2022-08-27T09:25:50.289Z,53.05
2022-08-27T09:28:49.526Z,52.33
2022-08-27T09:31:21.551Z,52.61
2022-08-27T09:33:55.994Z,52.47
2022-08-27T09:36:26.334Z,51.77
2022-08-27T09:39:02.030Z,52.07
2022-08-27T09:41:43.121Z,50.46
2022-08-27T09:44:13.249Z,52.36
2022-08-27T09:47:00.185Z,51.47
2022-08-27T09:49:29.322Z,50.65
2022-08-27T09:51:59.283Z,51.00
2022-08-27T09:54:42.851Z,51.16
2022-08-27T09:57:14.266Z,49.88
2022-08-27T09:59:55.370Z,48.38
2022-08-27T10:02:26.509Z,48.38
2022-08-27T10:05:01.247Z,49.72
2022-08-27T10:08:22.115Z,49.27
2022-08-27T10:11:01.263Z,49.21
2022-08-27T10:13:29.177Z,49.81
2022-08-27T10:16:34.873Z,49.14
2022-08-27T10:19:32.168Z,47.12
2022-08-27T10:22:08.654Z,46.47
2022-08-27T10:25:15.551Z,46.64
2022-08-27T10:27:59.318Z,46.00
2022-08-27T10:30:55.317Z,45.39
2022-08-27T10:33:38.020Z,44.45
2022-08-27T10:36:57.663Z,45.11
2022-08-27T10:39:54.706Z,42.86
2022-08-27T10:42:39.951Z,43.55
2022-08-27T10:45:31.078Z,43.88
2022-08-27T10:48:19.521Z,43.61
2022-08-27T10:51:08.861Z,42.32
2022-08-27T10:53:45.556Z,42.33
2022-08-27T10:56:45.220Z,42.38
2022-08-27T10:59:40.857Z,40.06
2022-08-27T11:02:40.399Z,40.18
2022-08-27T11:05:44.036Z,39.92
2022-08-27T11:08:22.337Z,39.30
2022-08-27T11:11:57.056Z,39.58
2022-08-27T11:14:01.276Z,38.93
2022-08-27T11:16:45.904Z,40.51
2022-08-27T11:19:26.841Z,40.04
2022-08-27T11:22:24.137Z,39.98
2022-08-27T11:25:58.347Z,39.12
2022-08-27T11:29:00.310Z,38.88
2022-08-27T11:31:53.879Z,37.98
2022-08-27T11:34:40.378Z,38.61
2022-08-27T11:37:45.849Z,38.82
2022-08-27T11:40:41.819Z,38.94
2022-08-27T11:43:16.303Z,39.09
2022-08-27T11:46:03.662Z,39.04
2022-08-27T11:48:36.933Z,38.62
2022-08-27T11:51:15.879Z,37.96
2022-08-27T11:54:27.361Z,37.50
2022-08-27T11:56:55.503Z,37.78
2022-08-27T11:59:33.261Z,38.85
2022-08-27T12:02:27.985Z,38.49
2022-08-27T12:05:26.618Z,38.69
2022-08-27T12:07:55.062Z,38.54
2022-08-27T12:11:13.132Z,38.25
2022-08-27T12:14:33.913Z,38.98
2022-08-27T12:17:17.089Z,37.92
2022-08-27T12:20:52.664Z,38.25
2022-08-27T12:24:04.986Z,37.75
2022-08-27T12:26:40.066Z,38.13
2022-08-27T12:29:46.731Z,37.63
2022-08-27T12:32:40.342Z,36.86
2022-08-27T12:35:20.277Z,36.51
2022-08-27T12:37:57.794Z,36.21
2022-08-27T12:40:38.886Z,36.75
2022-08-27T12:43:13.893Z,36.50
2022-08-27T12:45:57.317Z,36.64
2022-08-27T12:48:51.128Z,35.37
2022-08-27T12:51:31.565Z,35.98
2022-08-27T12:54:49.761Z,35.59
2022-08-27T12:57:47.778Z,35.95
2022-08-27T13:00:26.393Z,35.43
2022-08-27T13:03:22.615Z,35.08
2022-08-27T13:05:51.307Z,34.55
2022-08-27T13:08:22.841Z,35.28
2022-08-27T13:10:51.882Z,35.25
2022-08-27T13:13:25.486Z,34.35
2022-08-27T13:15:59.747Z,34.92
2022-08-27T13:18:30.520Z,34.69
2022-08-27T13:21:09.584Z,34.37
2022-08-27T13:23:44.153Z,34.10
2022-08-27T13:26:13.101Z,34.11
2022-08-27T13:28:43.842Z,34.20
2022-08-27T13:31:12.181Z,34.11
2022-08-27T13:33:43.151Z,34.32
2022-08-27T13:36:12.469Z,34.58
2022-08-27T13:38:50.137Z,34.13
2022-08-27T13:41:33.477Z,34.15
2022-08-27T13:44:34.967Z,32.94
2022-08-27T13:47:21.075Z,33.87
2022-08-27T13:49:50.614Z,33.74
2022-08-27T13:52:29.451Z,34.23
2022-08-27T13:55:08.048Z,32.76
2022-08-27T13:57:49.788Z,33.62
2022-08-27T14:00:26.870Z,33.16
2022-08-27T14:02:56.731Z,33.51
2022-08-27T14:05:24.806Z,33.62
2022-08-27T14:07:59.831Z,34.12
2022-08-27T14:10:44.880Z,33.41
2022-08-27T14:13:26.398Z,33.92
2022-08-27T14:16:00.951Z,33.01
2022-08-27T14:18:57.903Z,34.75
2022-08-27T14:21:25.819Z,33.81
2022-08-27T14:23:54.506Z,34.61
2022-08-27T14:26:23.027Z,33.90
2022-08-27T14:28:51.383Z,34.92
2022-08-27T14:31:19.860Z,35.14
2022-08-27T14:33:49.136Z,35.14
2022-08-27T14:36:17.367Z,34.86
2022-08-27T14:38:49.085Z,34.62
2022-08-27T14:41:18.899Z,34.84
2022-08-27T14:43:50.286Z,34.57
2022-08-27T14:46:25.463Z,34.99
2022-08-27T14:48:56.834Z,35.74
2022-08-27T14:51:31.597Z,35.88
2022-08-27T14:54:00.691Z,36.27
2022-08-27T14:56:28.798Z,36.74
2022-08-27T14:58:57.395Z,37.31
2022-08-27T15:01:27.702Z,36.22
2022-08-27T15:03:57.705Z,36.95
2022-08-27T15:06:27.370Z,36.55
2022-08-27T15:08:56.124Z,36.49
2022-08-27T15:11:31.678Z,36.54
2022-08-27T15:14:03.018Z,37.28
2022-08-27T15:16:40.258Z,37.19
2022-08-27T15:19:12.977Z,38.25
2022-08-27T15:21:44.497Z,37.00
2022-08-27T15:24:28.496Z,36.98
2022-08-27T15:26:58.889Z,37.77
2022-08-27T15:29:27.977Z,38.57
2022-08-27T15:31:56.278Z,38.84
2022-08-27T15:34:24.485Z,38.82
2022-08-27T15:36:53.600Z,39.24
2022-08-27T15:39:21.791Z,39.24
2022-08-27T15:42:05.938Z,39.76
2022-08-27T15:44:38.411Z,39.70
2022-08-27T15:47:07.326Z,40.13
2022-08-27T15:49:35.582Z,39.80
2022-08-27T15:52:05.381Z,40.11
2022-08-27T15:54:33.866Z,40.63
2022-08-27T15:57:02.585Z,41.01
2022-08-27T15:59:31.125Z,41.11
2022-08-27T16:02:00.659Z,40.97
2022-08-27T16:04:28.892Z,41.11
2022-08-27T16:06:57.135Z,41.73
2022-08-27T16:09:25.400Z,41.99
2022-08-27T16:11:53.625Z,42.29
2022-08-27T16:14:22.857Z,42.42
2022-08-27T16:16:51.975Z,43.00
2022-08-27T16:19:21.112Z,43.08
2022-08-27T16:21:51.214Z,43.38
2022-08-27T16:24:21.818Z,43.85
2022-08-27T16:26:50.284Z,44.09
2022-08-27T16:29:18.990Z,44.10
2022-08-27T16:31:47.415Z,44.72
2022-08-27T16:34:25.449Z,45.37
2022-08-27T16:36:54.506Z,45.72
2022-08-27T16:39:23.965Z,46.17
2022-08-27T16:41:52.198Z,46.29
2022-08-27T16:44:20.352Z,46.74
2022-08-27T16:46:48.622Z,47.52
2022-08-27T16:49:35.567Z,47.68
2022-08-27T16:52:06.426Z,47.98
2022-08-27T16:54:36.043Z,48.29
2022-08-27T16:57:04.770Z,48.52
2022-08-27T16:59:33.421Z,49.41
2022-08-27T17:02:01.683Z,50.13
2022-08-27T17:04:38.091Z,50.11
2022-08-27T17:07:11.438Z,50.77
2022-08-27T17:09:40.233Z,51.14
2022-08-27T17:12:10.728Z,51.86
2022-08-27T17:14:39.555Z,52.71
2022-08-27T17:17:09.596Z,53.58
2022-08-27T17:19:37.647Z,54.13
2022-08-27T17:22:10.354Z,54.60
2022-08-27T17:24:40.137Z,55.15
2022-08-27T17:27:08.715Z,55.67
2022-08-27T17:29:37.737Z,56.02
2022-08-27T17:32:09.173Z,56.92
2022-08-27T17:34:38.003Z,57.50
2022-08-27T17:37:07.322Z,58.11
2022-08-27T17:39:35.779Z,58.68
2022-08-27T17:42:07.280Z,59.18
2022-08-27T17:44:37.145Z,59.43
2022-08-27T17:47:08.811Z,59.98
2022-08-27T17:49:38.609Z,60.38
2022-08-27T17:52:15.510Z,60.92
2022-08-27T17:54:54.424Z,61.23
2022-08-27T17:57:29.553Z,61.24
2022-08-27T18:00:12.046Z,62.05
2022-08-27T18:02:47.689Z,62.41
2022-08-27T18:05:18.495Z,63.22
2022-08-27T18:07:48.460Z,63.95
2022-08-27T18:10:24.462Z,64.56
2022-08-27T18:12:53.835Z,64.98
2022-08-27T18:15:26.916Z,65.97
2022-08-27T18:17:57.387Z,67.06
2022-08-27T18:20:28.861Z,67.78
2022-08-27T18:22:57.787Z,67.98
2022-08-27T18:25:35.262Z,68.85
2022-08-27T18:28:17.556Z,69.61
2022-08-27T18:30:46.855Z,69.40
2022-08-27T18:33:15.416Z,69.76
2022-08-27T18:35:44.524Z,70.21
2022-08-27T18:38:15.801Z,70.90
2022-08-27T18:40:50.039Z,71.47
2022-08-27T18:43:23.539Z,72.53
2022-08-27T18:45:52.045Z,73.73
2022-08-27T18:48:22.653Z,73.75
2022-08-27T18:50:57.417Z,75.25
2022-08-27T18:53:30.684Z,76.98
2022-08-27T18:56:00.491Z,78.59
2022-08-27T18:58:32.135Z,78.72
2022-08-27T19:01:04.674Z,79.74
2022-08-27T19:03:50.760Z,80.40
2022-08-27T19:06:21.119Z,81.05
2022-08-27T19:08:52.395Z,80.64
2022-08-27T19:11:20.740Z,79.82
2022-08-27T19:13:50.741Z,82.27
2022-08-27T19:16:48.020Z,81.58
2022-08-27T19:19:18.831Z,83.25
2022-08-27T19:21:51.386Z,84.40
2022-08-27T19:24:22.255Z,85.75
2022-08-27T19:26:51.534Z,87.03
2022-08-27T19:29:20.122Z,87.32
2022-08-27T19:31:48.504Z,89.04
2022-08-27T19:34:16.967Z,89.37
2022-08-27T19:36:45.241Z,89.77
2022-08-27T19:39:14.002Z,91.08
2022-08-27T19:41:42.145Z,92.61
2022-08-27T19:44:10.480Z,93.69
2022-08-27T19:46:38.821Z,94.58
2022-08-27T19:49:07.027Z,95.01
2022-08-27T19:51:35.388Z,96.25
2022-08-27T19:54:04.104Z,97.03
2022-08-27T19:56:33.792Z,100.00
2022-08-27T19:59:16.280Z,100.00
2022-08-27T20:01:50.082Z,100.00
2022-08-27T20:04:18.919Z,100.00
2022-08-27T20:06:49.997Z,100.00
2022-08-27T20:09:21.396Z,100.00
2022-08-27T20:11:50.793Z,100.00
2022-08-27T20:14:19.465Z,100.00
2022-08-27T20:16:47.753Z,100.00
2022-08-27T20:19:17.717Z,100.00
2022-08-27T20:21:46.196Z,100.00
2022-08-27T20:24:14.606Z,100.00
2022-08-27T20:26:43.562Z,100.00
2022-08-27T20:29:15.069Z,100.00
2022-08-27T20:32:01.568Z,100.00
2022-08-27T20:34:30.073Z,100.00
2022-08-27T20:36:59.292Z,100.00
2022-08-27T20:39:27.685Z,100.00
2022-08-27T20:41:55.934Z,100.00
2022-08-27T20:44:25.342Z,100.00
2022-08-27T20:46:59.963Z,100.00
2022-08-27T20:49:29.216Z,100.00
2022-08-27T20:52:02.848Z,100.00
2022-08-27T20:54:34.215Z,100.00
2022-08-27T20:57:04.355Z,100.00
2022-08-27T20:59:52.125Z,100.00
2022-08-27T21:02:29.155Z,100.00
2022-08-27T21:04:58.335Z,100.00
2022-08-27T21:07:27.698Z,100.00
2022-08-27T21:09:57.554Z,100.00
2022-08-27T21:12:28.536Z,100.00
2022-08-27T21:14:57.974Z,100.00
2022-08-27T21:17:28.938Z,100.00
2022-08-27T21:19:57.582Z,100.00
2022-08-27T21:22:26.932Z,100.00
2022-08-27T21:24:56.229Z,100.00
2022-08-27T21:27:24.471Z,100.00
2022-08-27T21:29:54.369Z,100.00
2022-08-27T21:32:22.830Z,100.00
2022-08-27T21:34:51.158Z,100.00
2022-08-27T21:37:19.431Z,100.00
2022-08-27T21:39:48.537Z,100.00
2022-08-27T21:42:16.920Z,100.00
2022-08-27T21:44:45.103Z,100.00
2022-08-27T21:47:13.404Z,100.00
2022-08-27T21:49:42.218Z,100.00
2022-08-27T21:52:10.689Z,100.00
2022-08-27T21:54:42.430Z,100.00
2022-08-27T21:57:13.971Z,100.00
2022-08-27T21:59:47.125Z,100.00
2022-08-27T22:02:38.870Z,100.00
2022-08-27T22:05:07.670Z,100.00
2022-08-27T22:07:36.445Z,100.00
2022-08-27T22:10:06.806Z,100.00
2022-08-27T22:12:37.125Z,100.00
2022-08-27T22:15:09.010Z,100.00
2022-08-27T22:17:37.664Z,100.00
2022-08-27T22:20:10.129Z,100.00
2022-08-27T22:22:38.912Z,100.00
2022-08-27T22:25:08.953Z,100.00
2022-08-27T22:27:37.283Z,100.00
2022-08-27T22:30:11.024Z,100.00
2022-08-27T22:32:40.956Z,100.00
2022-08-27T22:35:12.406Z,100.00
2022-08-27T22:37:40.907Z,100.00
2022-08-27T22:40:20.722Z,100.00
2022-08-27T22:42:50.215Z,100.00
2022-08-27T22:45:19.233Z,100.00
2022-08-27T22:47:48.724Z,100.00
2022-08-27T22:50:17.633Z,100.00
2022-08-27T22:52:47.871Z,100.00
2022-08-27T22:55:19.731Z,100.00
2022-08-27T22:57:53.509Z,100.00
2022-08-27T23:00:26.919Z,100.00
2022-08-27T23:02:55.656Z,100.00
2022-08-27T23:05:25.257Z,100.00
2022-08-27T23:07:55.318Z,100.00
2022-08-27T23:10:24.622Z,100.00
2022-08-27T23:12:53.781Z,100.00
2022-08-27T23:15:26.569Z,100.00
2022-08-27T23:17:55.887Z,100.00
2022-08-27T23:20:26.071Z,100.00
2022-08-27T23:22:55.595Z,100.00
2022-08-27T23:25:45.153Z,100.00
2022-08-27T23:28:15.329Z,100.00
2022-08-27T23:30:45.474Z,100.00
2022-08-27T23:33:15.100Z,100.00
2022-08-27T23:35:48.305Z,100.00
2022-08-27T23:38:21.794Z,100.00
2022-08-27T23:40:50.817Z,100.00
2022-08-27T23:43:20.406Z,100.00
2022-08-27T23:45:50.712Z,100.00
2022-08-27T23:48:20.512Z,100.00
2022-08-27T23:50:48.856Z,100.00
2022-08-27T23:53:17.605Z,100.00
2022-08-27T23:55:45.801Z,100.00
2022-08-27T23:58:14.067Z,100.00
